createdAt,value
2018-12-03T00:00:20.836Z,8.70
2018-12-03T00:02:50.324Z,8.20
2018-12-03T00:05:18.861Z,9.57
2018-12-03T00:07:49.337Z,7.60
2018-12-03T00:10:19.427Z,6.97
2018-12-03T00:12:48.185Z,6.77
2018-12-03T00:15:17.422Z,7.57
2018-12-03T00:17:46.363Z,8.30
2018-12-03T00:20:15.648Z,6.60
2018-12-03T00:22:44.743Z,11.30
2018-12-03T00:25:13.187Z,9.87
2018-12-03T00:27:49.146Z,7.90
2018-12-03T00:30:17.568Z,8.70
2018-12-03T00:32:45.897Z,7.87
2018-12-03T00:35:14.357Z,9.87
2018-12-03T00:37:42.675Z,9.60
2018-12-03T00:40:11.056Z,6.97
2018-12-03T00:42:39.326Z,8.00
2018-12-03T00:45:07.810Z,9.93
2018-12-03T00:47:36.163Z,7.27
2018-12-03T00:50:04.729Z,7.90
2018-12-03T00:52:33.128Z,8.60
2018-12-03T00:55:01.458Z,9.83
2018-12-03T00:57:29.932Z,13.27
2018-12-03T00:59:59.794Z,9.70
2018-12-03T01:02:28.143Z,14.33
2018-12-03T01:04:56.583Z,10.20
2018-12-03T01:07:25.107Z,10.93
2018-12-03T01:09:53.563Z,10.17
2018-12-03T01:12:22.028Z,7.07
2018-12-03T01:14:50.354Z,8.37
2018-12-03T01:17:18.783Z,10.17
2018-12-03T01:19:47.113Z,7.47
2018-12-03T01:22:15.540Z,9.43
2018-12-03T01:24:44.182Z,9.57
2018-12-03T01:27:12.724Z,6.73
2018-12-03T01:29:41.206Z,13.27
2018-12-03T01:32:09.924Z,14.33
2018-12-03T01:34:38.323Z,8.03
2018-12-03T01:37:06.654Z,7.10
2018-12-03T01:39:35.020Z,5.63
2018-12-03T01:42:03.365Z,7.43
2018-12-03T01:44:31.744Z,5.10
2018-12-03T01:47:00.149Z,8.53
2018-12-03T01:49:28.590Z,10.87
2018-12-03T01:51:57.058Z,6.80
2018-12-03T01:54:25.728Z,5.63
2018-12-03T01:56:54.180Z,5.40
2018-12-03T01:59:22.775Z,6.33
2018-12-03T02:01:51.245Z,5.57
2018-12-03T02:04:20.033Z,7.00
2018-12-03T02:06:48.355Z,5.67
2018-12-03T02:09:16.846Z,6.27
2018-12-03T02:11:45.592Z,4.33
2018-12-03T02:14:13.906Z,4.30
2018-12-03T02:16:42.342Z,8.67
2018-12-03T02:22:15.906Z,5.00
2018-12-03T02:24:44.651Z,4.53
2018-12-03T02:27:12.990Z,4.97
2018-12-03T02:29:41.332Z,4.60
2018-12-03T02:32:09.851Z,5.07
2018-12-03T02:34:38.582Z,5.47
2018-12-03T02:37:07.058Z,5.43
2018-12-03T02:39:35.771Z,4.53
2018-12-03T02:42:04.080Z,4.80
2018-12-03T02:44:32.344Z,4.13
2018-12-03T02:47:00.715Z,4.43
2018-12-03T02:49:30.368Z,4.63
2018-12-03T02:51:58.962Z,4.63
2018-12-03T02:54:27.252Z,9.90
2018-12-03T02:56:55.567Z,4.67
2018-12-03T02:59:23.997Z,5.73
2018-12-03T03:01:52.399Z,4.97
2018-12-03T03:04:20.736Z,5.50
2018-12-03T03:06:49.445Z,5.10
2018-12-03T03:09:17.922Z,6.43
2018-12-03T03:11:46.406Z,6.97
2018-12-03T03:14:14.739Z,7.37
2018-12-03T03:16:43.160Z,7.13
2018-12-03T03:19:11.607Z,7.30
2018-12-03T03:21:40.120Z,9.13
2018-12-03T03:24:08.615Z,8.23
2018-12-03T03:26:37.215Z,9.37
2018-12-03T03:29:06.814Z,9.83
2018-12-03T03:31:35.266Z,9.63
2018-12-03T03:34:03.592Z,10.00
2018-12-03T03:36:31.935Z,9.40
2018-12-03T03:39:00.286Z,11.40
2018-12-03T03:41:28.637Z,11.10
2018-12-03T03:43:58.367Z,10.83
2018-12-03T03:46:25.629Z,10.10
2018-12-03T03:48:53.993Z,11.17
2018-12-03T03:51:22.320Z,11.07
2018-12-03T03:53:50.691Z,12.10
2018-12-03T03:56:19.006Z,10.90
2018-12-03T03:58:47.394Z,11.80
2018-12-03T04:01:15.714Z,16.30
2018-12-03T04:03:44.147Z,16.83
2018-12-03T04:06:12.460Z,11.83
2018-12-03T04:08:40.728Z,12.53
2018-12-03T04:11:09.037Z,13.10
2018-12-03T04:13:37.462Z,12.13
2018-12-03T04:16:05.784Z,12.70
2018-12-03T04:18:34.285Z,17.27
2018-12-03T04:21:03.054Z,11.53
2018-12-03T04:23:31.376Z,13.53
2018-12-03T04:25:59.718Z,11.97
2018-12-03T04:28:28.017Z,14.53
2018-12-03T04:30:56.313Z,13.60
2018-12-03T04:33:24.627Z,14.97
2018-12-03T04:35:53.124Z,14.20
2018-12-03T04:38:21.439Z,15.07
2018-12-03T04:40:49.741Z,15.63
2018-12-03T04:43:18.051Z,13.20
2018-12-03T04:45:46.402Z,11.97
2018-12-03T04:48:15.161Z,12.87
2018-12-03T04:50:43.470Z,13.70
2018-12-03T04:53:11.763Z,13.53
2018-12-03T04:55:40.073Z,12.00
2018-12-03T04:58:08.412Z,11.60
2018-12-03T05:03:33.506Z,11.37
2018-12-03T05:06:02.713Z,11.70
2018-12-03T05:08:31.910Z,13.43
2018-12-03T05:11:01.244Z,12.93
2018-12-03T05:13:30.471Z,9.97
2018-12-03T05:15:59.797Z,9.70
2018-12-03T05:18:29.089Z,9.90
2018-12-03T05:20:58.496Z,10.47
2018-12-03T05:23:27.591Z,12.30
2018-12-03T05:25:56.806Z,10.00
2018-12-03T05:28:25.996Z,11.33
2018-12-03T05:30:55.342Z,17.90
2018-12-03T05:33:24.698Z,8.50
2018-12-03T05:35:53.917Z,11.97
2018-12-03T05:38:23.108Z,10.70
2018-12-03T05:40:52.531Z,9.40
2018-12-03T05:43:21.794Z,12.23
2018-12-03T05:45:50.986Z,8.20
2018-12-03T05:48:20.080Z,12.70
2018-12-03T05:50:49.294Z,10.70
2018-12-03T05:53:18.497Z,9.27
2018-12-03T05:55:47.796Z,9.67
2018-12-03T05:58:16.851Z,20.47
2018-12-03T06:00:46.102Z,10.63
2018-12-03T06:03:24.655Z,13.87
2018-12-03T06:05:53.920Z,11.00
2018-12-03T06:08:23.332Z,12.60
2018-12-03T06:10:52.417Z,10.30
2018-12-03T06:13:21.624Z,15.67
2018-12-03T06:15:50.999Z,10.37
2018-12-03T06:18:20.205Z,15.60
2018-12-03T06:20:49.604Z,9.77
2018-12-03T06:23:18.804Z,14.73
2018-12-03T06:25:47.998Z,10.20
2018-12-03T06:28:17.066Z,11.37
2018-12-03T06:30:46.311Z,10.50
2018-12-03T06:33:15.728Z,9.73
2018-12-03T06:35:45.040Z,14.77
2018-12-03T06:38:15.526Z,10.73
2018-12-03T06:40:43.299Z,14.73
2018-12-03T06:43:12.670Z,10.43
2018-12-03T06:45:41.924Z,14.90
2018-12-03T06:48:14.322Z,10.70
2018-12-03T06:50:43.571Z,11.30
2018-12-03T06:53:12.947Z,12.73
2018-12-03T06:55:42.258Z,10.13
2018-12-03T06:58:11.454Z,10.13
2018-12-03T07:00:41.013Z,13.00
2018-12-03T07:03:10.246Z,12.60
2018-12-03T07:05:39.679Z,9.63
2018-12-03T07:08:09.625Z,10.60
2018-12-03T07:10:39.039Z,12.10
2018-12-03T07:13:10.039Z,8.60
2018-12-03T07:15:41.021Z,12.77
2018-12-03T07:18:10.812Z,12.77
2018-12-03T07:20:40.119Z,12.50
2018-12-03T07:23:09.468Z,16.73
2018-12-03T07:25:38.774Z,13.67
2018-12-03T07:28:07.989Z,10.33
2018-12-03T07:30:37.421Z,15.93
2018-12-03T07:33:06.633Z,12.20
2018-12-03T07:35:35.767Z,14.20
2018-12-03T07:38:05.001Z,13.53
2018-12-03T07:40:34.275Z,14.43
2018-12-03T07:43:03.665Z,13.00
2018-12-03T07:45:32.981Z,16.87
2018-12-03T07:48:02.175Z,14.23
2018-12-03T07:50:31.479Z,15.03
2018-12-03T07:53:00.834Z,13.57
2018-12-03T07:55:30.482Z,15.33
2018-12-03T07:58:02.760Z,18.83
2018-12-03T08:00:45.143Z,15.50
2018-12-03T08:03:14.443Z,15.00
2018-12-03T08:05:43.767Z,14.20
2018-12-03T08:08:12.842Z,13.70
2018-12-03T08:10:43.413Z,19.43
2018-12-03T08:13:13.847Z,18.10
2018-12-03T08:15:43.139Z,16.70
2018-12-03T08:18:14.205Z,14.60
2018-12-03T08:20:45.866Z,12.07
2018-12-03T08:23:18.584Z,15.17
2018-12-03T08:25:47.792Z,12.40
2018-12-03T08:28:16.862Z,17.50
2018-12-03T08:30:45.983Z,14.20
2018-12-03T08:33:15.091Z,20.20
2018-12-03T08:35:44.291Z,15.17
2018-12-03T08:38:13.556Z,13.77
2018-12-03T08:40:42.993Z,12.30
2018-12-03T08:44:15.247Z,11.03
2018-12-03T08:46:44.554Z,11.70
2018-12-03T08:49:13.874Z,10.47
2018-12-03T08:51:43.155Z,14.13
2018-12-03T08:54:12.230Z,13.27
2018-12-03T08:56:46.231Z,10.57
2018-12-03T08:59:15.561Z,10.67
2018-12-03T09:01:44.682Z,10.33
2018-12-03T09:04:16.197Z,9.40
2018-12-03T09:06:45.299Z,9.27
2018-12-03T09:09:15.958Z,8.40
2018-12-03T09:11:49.743Z,8.57
2018-12-03T09:14:20.155Z,8.70
2018-12-03T09:16:49.369Z,9.00
2018-12-03T09:19:18.746Z,9.60
2018-12-03T09:21:48.065Z,9.57
2018-12-03T09:24:17.168Z,11.17
2018-12-03T09:26:46.459Z,12.50
2018-12-03T09:29:15.550Z,10.17
2018-12-03T09:31:44.782Z,8.87
2018-12-03T09:34:14.040Z,8.13
2018-12-03T09:36:43.269Z,7.47
2018-12-03T09:39:16.669Z,7.10
2018-12-03T09:41:46.512Z,6.53
2018-12-03T09:44:16.018Z,6.97
2018-12-03T09:46:45.287Z,9.23
2018-12-03T09:49:14.551Z,10.33
2018-12-03T09:51:44.215Z,7.20
2018-12-03T09:54:13.372Z,8.77
2018-12-03T09:56:50.644Z,4.43
2018-12-03T09:59:23.245Z,8.00
2018-12-03T10:01:56.231Z,5.60
2018-12-03T10:04:31.799Z,3.93
2018-12-03T10:07:01.272Z,5.70
2018-12-03T10:09:35.686Z,4.40
2018-12-03T10:12:04.990Z,4.10
2018-12-03T10:14:34.176Z,3.43
2018-12-03T10:17:03.598Z,2.90
2018-12-03T10:19:32.865Z,2.70
2018-12-03T10:22:09.045Z,2.63
2018-12-03T10:24:38.575Z,3.10
2018-12-03T10:27:11.576Z,5.23
2018-12-03T10:29:41.292Z,3.70
2018-12-03T10:32:11.470Z,2.93
2018-12-03T10:34:40.571Z,2.97
2018-12-03T10:37:09.770Z,2.97
2018-12-03T10:39:39.123Z,5.90
2018-12-03T10:42:13.822Z,3.17
2018-12-03T10:44:42.889Z,3.83
2018-12-03T10:47:12.092Z,2.30
2018-12-03T10:49:41.495Z,8.10
2018-12-03T10:52:10.718Z,2.40
2018-12-03T10:54:42.251Z,2.40
2018-12-03T10:57:12.109Z,4.93
2018-12-03T10:59:41.626Z,2.77
2018-12-03T11:02:15.710Z,2.80
2018-12-03T11:04:49.083Z,4.27
2018-12-03T11:07:18.467Z,3.03
2018-12-03T11:09:47.775Z,1.97
2018-12-03T11:12:17.023Z,28.33
2018-12-03T11:14:46.259Z,11.30
2018-12-03T11:17:15.576Z,2.20
2018-12-03T11:19:47.949Z,2.00
2018-12-03T11:22:21.631Z,21.03
2018-12-03T11:24:50.836Z,1.80
2018-12-03T11:27:21.131Z,11.83
2018-12-03T11:29:50.295Z,1.73
2018-12-03T11:32:20.963Z,1.67
2018-12-03T11:34:49.942Z,5.37
2018-12-03T11:37:20.483Z,2.50
2018-12-03T11:39:56.200Z,1.23
2018-12-03T11:42:27.627Z,1.00
2018-12-03T11:44:56.771Z,2.10
2018-12-03T11:47:26.016Z,2.23
2018-12-03T11:49:54.962Z,2.00
2018-12-03T11:52:24.343Z,1.43
2018-12-03T11:54:53.597Z,4.00
2018-12-03T11:57:22.683Z,3.33
2018-12-03T11:59:51.862Z,11.73
2018-12-03T12:02:21.133Z,2.70
2018-12-03T12:04:50.256Z,2.20
2018-12-03T12:07:19.267Z,2.70
2018-12-03T12:09:48.487Z,6.97
2018-12-03T12:12:17.835Z,1.10
2018-12-03T12:14:47.142Z,1.00
2018-12-03T12:17:16.487Z,2.23
2018-12-03T12:19:45.678Z,2.50
2018-12-03T12:22:14.883Z,2.33
2018-12-03T12:24:44.125Z,4.73
2018-12-03T12:27:13.427Z,11.40
2018-12-03T12:29:42.749Z,1.77
2018-12-03T12:32:11.871Z,4.37
2018-12-03T12:34:41.130Z,3.60
2018-12-03T12:37:10.476Z,4.20
2018-12-03T12:39:39.730Z,4.43
2018-12-03T12:42:09.211Z,5.40
2018-12-03T12:44:38.679Z,6.77
2018-12-03T12:47:08.223Z,2.30
2018-12-03T12:49:37.348Z,4.50
2018-12-03T12:52:07.235Z,5.60
2018-12-03T12:54:36.578Z,3.70
2018-12-03T12:57:05.929Z,9.27
2018-12-03T12:59:35.090Z,9.43
2018-12-03T13:02:04.306Z,10.23
2018-12-03T13:04:33.529Z,7.17
2018-12-03T13:07:02.898Z,5.63
2018-12-03T13:09:32.205Z,8.73
2018-12-03T13:12:01.290Z,7.40
2018-12-03T13:14:30.594Z,7.53
2018-12-03T13:16:59.899Z,4.90
2018-12-03T13:19:29.379Z,5.03
2018-12-03T13:21:58.510Z,7.23
2018-12-03T13:24:27.697Z,7.63
2018-12-03T13:26:57.395Z,7.27
2018-12-03T13:29:26.688Z,9.20
2018-12-03T13:31:55.694Z,7.13
2018-12-03T13:34:24.933Z,5.27
2018-12-03T13:36:54.247Z,5.37
2018-12-03T13:39:23.519Z,7.87
2018-12-03T13:41:52.895Z,8.03
2018-12-03T13:44:22.083Z,5.87
2018-12-03T13:46:51.516Z,5.17
2018-12-03T13:49:20.591Z,4.83
2018-12-03T13:51:49.697Z,6.40
2018-12-03T13:54:18.989Z,11.10
2018-12-03T13:56:48.293Z,4.53
2018-12-03T13:59:17.569Z,8.80
2018-12-03T14:01:47.960Z,6.30
2018-12-03T14:04:16.486Z,3.57
2018-12-03T14:06:54.860Z,3.10
2018-12-03T14:11:37.919Z,3.70
2018-12-03T14:14:15.627Z,9.33
2018-12-03T14:16:51.896Z,4.30
2018-12-03T14:19:23.727Z,8.13
2018-12-03T14:22:06.821Z,7.77
2018-12-03T14:24:42.903Z,7.83
2018-12-03T14:27:12.163Z,7.77
2018-12-03T14:29:41.971Z,13.43
2018-12-03T14:32:11.170Z,7.57
2018-12-03T14:34:40.530Z,9.53
2018-12-03T14:37:10.130Z,5.80
2018-12-03T14:39:39.335Z,7.00
2018-12-03T14:42:08.667Z,5.90
2018-12-03T14:44:37.943Z,9.73
2018-12-03T14:47:07.290Z,8.90
2018-12-03T14:49:36.570Z,8.90
2018-12-03T14:52:05.769Z,8.80
2018-12-03T14:54:34.911Z,11.60
2018-12-03T14:57:04.282Z,10.70
2018-12-03T14:59:33.378Z,9.73
2018-12-03T15:02:02.660Z,9.70
2018-12-03T15:04:32.023Z,8.83
2018-12-03T15:07:01.251Z,9.17
2018-12-03T15:09:30.450Z,7.27
2018-12-03T15:11:59.903Z,9.60
2018-12-03T15:14:29.112Z,12.13
2018-12-03T15:16:58.535Z,9.03
2018-12-03T15:19:27.512Z,9.70
2018-12-03T15:21:56.751Z,16.43
2018-12-03T15:24:26.139Z,10.00
2018-12-03T15:26:55.381Z,11.97
2018-12-03T15:29:24.619Z,20.20
2018-12-03T15:31:54.000Z,12.00
2018-12-03T15:34:23.110Z,14.20
2018-12-03T15:36:52.527Z,11.97
2018-12-03T15:39:21.841Z,12.07
2018-12-03T15:41:51.139Z,16.23
2018-12-03T15:44:20.225Z,13.13
2018-12-03T15:46:49.586Z,13.00
2018-12-03T15:49:18.739Z,10.43
2018-12-03T15:51:48.139Z,9.33
2018-12-03T15:54:17.347Z,12.17
2018-12-03T15:56:46.756Z,15.33
2018-12-03T15:59:16.013Z,10.50
2018-12-03T16:01:45.363Z,15.67
2018-12-03T16:04:14.522Z,8.50
2018-12-03T16:06:44.011Z,13.07
2018-12-03T16:09:43.437Z,15.43
2018-12-03T16:12:11.010Z,19.30
2018-12-03T16:14:38.651Z,19.40
2018-12-03T16:17:06.290Z,10.30
2018-12-03T16:19:33.856Z,10.67
2018-12-03T16:22:01.472Z,9.67
2018-12-03T16:24:29.042Z,10.57
2018-12-03T16:26:56.674Z,11.60
2018-12-03T16:29:24.246Z,13.43
2018-12-03T16:31:52.723Z,12.27
2018-12-03T16:34:20.287Z,19.37
2018-12-03T16:36:47.867Z,19.87
2018-12-03T16:39:15.449Z,17.93
2018-12-03T16:41:43.057Z,22.20
2018-12-03T16:44:10.633Z,17.97
2018-12-03T16:46:38.273Z,12.60
2018-12-03T16:49:05.866Z,16.23
2018-12-03T16:51:33.447Z,15.23
2018-12-03T16:54:01.044Z,11.27
2018-12-03T16:56:28.642Z,16.90
2018-12-03T16:58:56.305Z,12.60
2018-12-03T17:01:23.855Z,12.93
2018-12-03T17:03:51.498Z,13.63
2018-12-03T17:06:19.066Z,11.23
2018-12-03T17:08:46.772Z,13.37
2018-12-03T17:11:14.318Z,14.90
2018-12-03T17:13:42.247Z,11.10
2018-12-03T17:16:09.827Z,13.33
2018-12-03T17:18:37.562Z,16.03
2018-12-03T17:21:05.232Z,11.70
2018-12-03T17:23:33.335Z,13.60
2018-12-03T17:26:00.891Z,17.70
2018-12-03T17:28:28.663Z,12.70
2018-12-03T17:30:57.191Z,12.17
2018-12-03T17:33:24.789Z,15.63
2018-12-03T17:35:52.354Z,22.47
2018-12-03T17:38:20.019Z,15.17
2018-12-03T17:40:47.783Z,14.43
2018-12-03T17:43:15.348Z,13.63
2018-12-03T17:45:42.901Z,19.23
2018-12-03T17:48:10.579Z,22.27
2018-12-03T17:50:38.126Z,14.93
2018-12-03T17:53:06.710Z,21.20
2018-12-03T17:55:34.264Z,13.43
2018-12-03T17:58:01.995Z,20.00
2018-12-03T18:00:29.747Z,14.13
2018-12-03T18:02:57.396Z,9.93
2018-12-03T18:05:25.066Z,15.23
2018-12-03T18:07:52.612Z,15.53
2018-12-03T18:10:20.150Z,16.57
2018-12-03T18:12:47.699Z,22.67
2018-12-03T18:15:15.427Z,22.50
2018-12-03T18:17:43.207Z,18.10
2018-12-03T18:20:10.773Z,11.30
2018-12-03T18:22:38.335Z,9.53
2018-12-03T18:25:05.995Z,18.00
2018-12-03T18:27:33.655Z,14.43
2018-12-03T18:30:01.217Z,24.60
2018-12-03T18:32:29.256Z,15.00
2018-12-03T18:34:56.825Z,13.67
2018-12-03T18:37:24.498Z,25.33
2018-12-03T18:39:52.086Z,12.53
2018-12-03T18:42:19.651Z,14.63
2018-12-03T18:44:47.287Z,24.03
2018-12-03T18:47:14.830Z,18.93
2018-12-03T18:49:42.570Z,15.40
2018-12-03T18:52:10.257Z,12.50
2018-12-03T18:54:37.826Z,12.40
2018-12-03T18:57:05.379Z,18.10
2018-12-03T18:59:32.941Z,14.37
2018-12-03T19:02:00.492Z,13.93
2018-12-03T19:04:28.059Z,13.10
2018-12-03T19:06:55.599Z,12.70
2018-12-03T19:09:23.165Z,15.83
2018-12-03T19:11:50.850Z,13.50
2018-12-03T19:14:18.415Z,13.93
2018-12-03T19:16:45.995Z,12.57
2018-12-03T19:19:13.708Z,15.00
2018-12-03T19:21:41.401Z,12.73
2018-12-03T19:24:08.963Z,16.33
2018-12-03T19:26:36.894Z,13.77
2018-12-03T19:29:04.443Z,11.20
2018-12-03T19:31:32.989Z,12.57
2018-12-03T19:34:01.369Z,19.20
2018-12-03T19:36:29.826Z,18.67
2018-12-03T19:38:59.038Z,28.93
2018-12-03T19:41:27.012Z,23.27
2018-12-03T19:43:55.013Z,76.83
2018-12-03T19:46:22.822Z,38.60
2018-12-03T19:48:50.484Z,26.07
2018-12-03T19:51:18.109Z,55.83
2018-12-03T19:53:45.867Z,40.20
2018-12-03T19:56:13.886Z,21.80
2018-12-03T19:58:45.444Z,20.93
2018-12-03T20:01:14.643Z,37.83
2018-12-03T20:03:42.759Z,20.57
2018-12-03T20:06:11.235Z,33.57
2018-12-03T20:08:39.064Z,27.20
2018-12-03T20:11:08.046Z,17.70
2018-12-03T20:13:36.843Z,13.90
2018-12-03T20:16:04.662Z,11.90
2018-12-03T20:18:33.130Z,17.93
2018-12-03T20:21:00.908Z,17.40
2018-12-03T20:23:28.602Z,24.63
2018-12-03T20:25:59.600Z,12.50
2018-12-03T20:28:27.484Z,21.03
2018-12-03T20:30:58.422Z,17.47
2018-12-03T20:33:27.818Z,18.87
2018-12-03T20:35:57.188Z,13.23
2018-12-03T20:38:25.964Z,26.83
2018-12-03T20:40:54.758Z,13.60
2018-12-03T20:43:22.909Z,44.43
2018-12-03T20:45:55.899Z,19.97
2018-12-03T20:48:27.119Z,12.83
2018-12-03T20:50:59.613Z,21.13
2018-12-03T20:53:28.702Z,16.60
2018-12-03T20:55:56.449Z,18.67
2018-12-03T20:58:26.553Z,14.80
2018-12-03T21:01:03.566Z,20.23
2018-12-03T21:03:31.169Z,18.00
2018-12-03T21:05:59.746Z,18.00
2018-12-03T21:08:28.093Z,10.23
2018-12-03T21:10:55.684Z,13.87
2018-12-03T21:13:24.331Z,16.33
2018-12-03T21:15:53.739Z,14.80
2018-12-03T21:18:21.596Z,11.70
2018-12-03T21:20:50.095Z,12.37
2018-12-03T21:23:18.295Z,19.17
2018-12-03T21:25:45.928Z,16.30
2018-12-03T21:28:13.658Z,9.13
2018-12-03T21:30:41.270Z,18.33
2018-12-03T21:33:08.843Z,12.93
2018-12-03T21:35:38.155Z,14.17
2018-12-03T21:38:05.929Z,12.63
2018-12-03T21:40:36.063Z,9.97
2018-12-03T21:43:03.836Z,12.57
2018-12-03T21:45:31.644Z,12.67
2018-12-03T21:47:59.744Z,13.50
2018-12-03T21:50:27.446Z,13.73
2018-12-03T21:52:55.086Z,14.93
2018-12-03T21:55:24.704Z,12.70
2018-12-03T21:57:54.175Z,14.73
2018-12-03T22:00:21.919Z,12.37
2018-12-03T22:02:53.247Z,13.13
2018-12-03T22:05:20.922Z,12.73
2018-12-03T22:07:48.767Z,9.53
2018-12-03T22:10:17.146Z,11.27
2018-12-03T22:12:44.877Z,16.37
2018-12-03T22:15:13.018Z,11.70
2018-12-03T22:17:41.521Z,11.30
2018-12-03T22:20:09.710Z,11.37
2018-12-03T22:22:37.312Z,11.20
2018-12-03T22:25:05.141Z,9.80
2018-12-03T22:27:33.112Z,11.07
2018-12-03T22:30:01.065Z,14.53
2018-12-03T22:32:30.002Z,13.67
2018-12-03T22:34:58.804Z,13.70
2018-12-03T22:37:27.906Z,11.47
2018-12-03T22:39:57.067Z,16.67
2018-12-03T22:42:25.827Z,15.07
2018-12-03T22:44:54.179Z,20.17
2018-12-03T22:47:22.228Z,11.73
2018-12-03T22:49:50.246Z,17.87
2018-12-03T22:52:18.313Z,16.53
2018-12-03T22:54:46.334Z,12.30
2018-12-03T22:57:14.512Z,11.03
2018-12-03T22:59:42.742Z,9.23
2018-12-03T23:02:11.414Z,11.43
2018-12-03T23:04:39.938Z,10.60
2018-12-03T23:07:08.628Z,8.07
2018-12-03T23:09:36.546Z,12.43
2018-12-03T23:12:04.560Z,12.80
2018-12-03T23:14:33.058Z,14.70
2018-12-03T23:17:01.561Z,11.37
2018-12-03T23:19:30.359Z,10.53
2018-12-03T23:21:58.127Z,10.37
2018-12-03T23:24:26.302Z,13.90
2018-12-03T23:26:54.011Z,15.53
2018-12-03T23:29:22.279Z,7.83
2018-12-03T23:31:50.450Z,13.03
2018-12-03T23:34:18.762Z,9.57
2018-12-03T23:36:47.886Z,7.60
2018-12-03T23:39:16.082Z,8.73
2018-12-03T23:41:45.049Z,12.73
2018-12-03T23:44:13.567Z,8.03
2018-12-03T23:46:42.224Z,12.63
2018-12-03T23:49:10.569Z,11.00
2018-12-03T23:51:38.561Z,12.93
2018-12-03T23:54:07.182Z,12.70
2018-12-03T23:56:36.634Z,8.37
2018-12-03T23:59:05.526Z,11.53
